sensor_id;sensor_type;location;lat;lon;timestamp;P1;durP1;ratioP1;P2;durP2;ratioP2
24891;SDS011;12954;50.688;10.908;2023-01-04T00:02:01;5.40;;;2.58;;
24891;SDS011;12954;50.688;10.908;2023-01-04T00:04:29;4.70;;;2.67;;
24891;SDS011;12954;50.688;10.908;2023-01-04T00:06:57;4.55;;;3.00;;
24891;SDS011;12954;50.688;10.908;2023-01-04T00:09:26;4.03;;;2.40;;
24891;SDS011;12954;50.688;10.908;2023-01-04T00:11:54;4.55;;;2.90;;
24891;SDS011;12954;50.688;10.908;2023-01-04T00:14:24;4.18;;;2.53;;
24891;SDS011;12954;50.688;10.908;2023-01-04T00:16:53;4.65;;;2.30;;
24891;SDS011;12954;50.688;10.908;2023-01-04T00:19:21;3.90;;;2.40;;
24891;SDS011;12954;50.688;10.908;2023-01-04T00:21:49;4.93;;;2.85;;
24891;SDS011;12954;50.688;10.908;2023-01-04T00:24:18;5.05;;;2.65;;
24891;SDS011;12954;50.688;10.908;2023-01-04T00:26:47;4.82;;;2.75;;
24891;SDS011;12954;50.688;10.908;2023-01-04T00:29:15;5.57;;;3.20;;
24891;SDS011;12954;50.688;10.908;2023-01-04T00:31:45;3.72;;;3.00;;
24891;SDS011;12954;50.688;10.908;2023-01-04T00:34:14;3.95;;;2.67;;
24891;SDS011;12954;50.688;10.908;2023-01-04T00:36:43;4.57;;;2.90;;
24891;SDS011;12954;50.688;10.908;2023-01-04T00:39:13;3.30;;;2.53;;
24891;SDS011;12954;50.688;10.908;2023-01-04T00:41:43;4.90;;;2.58;;
24891;SDS011;12954;50.688;10.908;2023-01-04T00:44:28;3.55;;;2.33;;
24891;SDS011;12954;50.688;10.908;2023-01-04T00:46:58;6.05;;;2.70;;
24891;SDS011;12954;50.688;10.908;2023-01-04T00:49:28;3.67;;;2.28;;
24891;SDS011;12954;50.688;10.908;2023-01-04T00:51:57;3.80;;;2.22;;
24891;SDS011;12954;50.688;10.908;2023-01-04T00:54:26;6.93;;;2.50;;
24891;SDS011;12954;50.688;10.908;2023-01-04T00:56:55;5.28;;;3.00;;
24891;SDS011;12954;50.688;10.908;2023-01-04T00:59:24;4.70;;;3.53;;
24891;SDS011;12954;50.688;10.908;2023-01-04T01:01:52;3.58;;;2.83;;
24891;SDS011;12954;50.688;10.908;2023-01-04T01:04:23;6.55;;;2.92;;
24891;SDS011;12954;50.688;10.908;2023-01-04T01:06:51;3.80;;;2.55;;
24891;SDS011;12954;50.688;10.908;2023-01-04T01:09:20;5.40;;;2.67;;
24891;SDS011;12954;50.688;10.908;2023-01-04T01:11:49;4.78;;;2.60;;
24891;SDS011;12954;50.688;10.908;2023-01-04T01:14:19;5.72;;;2.60;;
24891;SDS011;12954;50.688;10.908;2023-01-04T01:16:49;6.88;;;2.55;;
24891;SDS011;12954;50.688;10.908;2023-01-04T01:19:23;6.97;;;2.63;;
24891;SDS011;12954;50.688;10.908;2023-01-04T01:21:53;4.22;;;2.42;;
24891;SDS011;12954;50.688;10.908;2023-01-04T01:24:23;6.32;;;2.13;;
24891;SDS011;12954;50.688;10.908;2023-01-04T01:26:52;5.60;;;3.40;;
24891;SDS011;12954;50.688;10.908;2023-01-04T01:29:21;4.38;;;3.83;;
24891;SDS011;12954;50.688;10.908;2023-01-04T01:31:50;5.43;;;3.67;;
24891;SDS011;12954;50.688;10.908;2023-01-04T01:34:18;5.70;;;3.75;;
24891;SDS011;12954;50.688;10.908;2023-01-04T01:36:48;5.18;;;2.70;;
24891;SDS011;12954;50.688;10.908;2023-01-04T01:39:17;5.03;;;3.10;;
24891;SDS011;12954;50.688;10.908;2023-01-04T01:41:45;5.00;;;2.40;;
24891;SDS011;12954;50.688;10.908;2023-01-04T01:47:22;4.85;;;2.95;;
24891;SDS011;12954;50.688;10.908;2023-01-04T01:49:53;6.03;;;3.63;;
24891;SDS011;12954;50.688;10.908;2023-01-04T01:52:24;5.82;;;3.95;;
24891;SDS011;12954;50.688;10.908;2023-01-04T01:54:57;5.22;;;3.25;;
24891;SDS011;12954;50.688;10.908;2023-01-04T01:57:31;3.53;;;2.80;;
24891;SDS011;12954;50.688;10.908;2023-01-04T02:00:04;7.78;;;3.60;;
24891;SDS011;12954;50.688;10.908;2023-01-04T02:02:35;3.60;;;2.80;;
24891;SDS011;12954;50.688;10.908;2023-01-04T02:05:04;3.40;;;3.00;;
24891;SDS011;12954;50.688;10.908;2023-01-04T02:07:34;6.65;;;4.20;;
24891;SDS011;12954;50.688;10.908;2023-01-04T02:10:04;4.20;;;3.08;;
24891;SDS011;12954;50.688;10.908;2023-01-04T02:12:34;4.57;;;4.10;;
24891;SDS011;12954;50.688;10.908;2023-01-04T02:15:02;4.47;;;3.85;;
24891;SDS011;12954;50.688;10.908;2023-01-04T02:17:33;4.10;;;3.60;;
24891;SDS011;12954;50.688;10.908;2023-01-04T02:20:19;5.32;;;3.38;;
24891;SDS011;12954;50.688;10.908;2023-01-04T02:29:38;4.45;;;3.40;;
24891;SDS011;12954;50.688;10.908;2023-01-04T02:35:15;5.07;;;3.35;;
24891;SDS011;12954;50.688;10.908;2023-01-04T02:37:49;5.22;;;3.30;;
24891;SDS011;12954;50.688;10.908;2023-01-04T02:40:26;4.43;;;3.22;;
24891;SDS011;12954;50.688;10.908;2023-01-04T02:43:03;4.88;;;3.22;;
24891;SDS011;12954;50.688;10.908;2023-01-04T02:45:54;5.03;;;2.85;;
24891;SDS011;12954;50.688;10.908;2023-01-04T02:48:28;4.60;;;3.47;;
24891;SDS011;12954;50.688;10.908;2023-01-04T02:51:23;4.68;;;2.58;;
24891;SDS011;12954;50.688;10.908;2023-01-04T02:53:55;5.18;;;2.75;;
24891;SDS011;12954;50.688;10.908;2023-01-04T02:56:28;6.68;;;3.20;;
24891;SDS011;12954;50.688;10.908;2023-01-04T03:02:08;3.83;;;2.60;;
24891;SDS011;12954;50.688;10.908;2023-01-04T03:05:13;4.30;;;2.50;;
24891;SDS011;12954;50.688;10.908;2023-01-04T03:08:20;5.97;;;3.00;;
24891;SDS011;12954;50.688;10.908;2023-01-04T03:10:56;7.40;;;3.10;;
24891;SDS011;12954;50.688;10.908;2023-01-04T03:13:30;4.90;;;3.25;;
24891;SDS011;12954;50.688;10.908;2023-01-04T03:16:05;9.00;;;2.95;;
24891;SDS011;12954;50.688;10.908;2023-01-04T03:18:37;3.53;;;2.30;;
24891;SDS011;12954;50.688;10.908;2023-01-04T03:21:10;4.28;;;2.80;;
24891;SDS011;12954;50.688;10.908;2023-01-04T03:23:42;3.67;;;2.60;;
24891;SDS011;12954;50.688;10.908;2023-01-04T03:26:30;6.68;;;2.60;;
24891;SDS011;12954;50.688;10.908;2023-01-04T03:29:20;3.65;;;2.42;;
24891;SDS011;12954;50.688;10.908;2023-01-04T03:32:17;3.08;;;2.45;;
24891;SDS011;12954;50.688;10.908;2023-01-04T03:35:09;5.68;;;2.60;;
24891;SDS011;12954;50.688;10.908;2023-01-04T03:37:51;8.45;;;2.90;;
24891;SDS011;12954;50.688;10.908;2023-01-04T03:40:39;4.70;;;3.13;;
24891;SDS011;12954;50.688;10.908;2023-01-04T03:43:30;5.00;;;3.20;;
24891;SDS011;12954;50.688;10.908;2023-01-04T03:46:20;6.15;;;4.00;;
24891;SDS011;12954;50.688;10.908;2023-01-04T03:49:17;5.10;;;3.90;;
24891;SDS011;12954;50.688;10.908;2023-01-04T03:51:52;5.95;;;4.05;;
24891;SDS011;12954;50.688;10.908;2023-01-04T03:54:27;7.75;;;5.63;;
24891;SDS011;12954;50.688;10.908;2023-01-04T03:56:58;13.52;;;8.13;;
24891;SDS011;12954;50.688;10.908;2023-01-04T03:59:27;12.15;;;7.55;;
24891;SDS011;12954;50.688;10.908;2023-01-04T04:01:56;14.02;;;9.63;;
24891;SDS011;12954;50.688;10.908;2023-01-04T04:04:25;11.07;;;8.15;;
24891;SDS011;12954;50.688;10.908;2023-01-04T04:07:10;5.93;;;4.90;;
24891;SDS011;12954;50.688;10.908;2023-01-04T04:09:57;7.00;;;4.78;;
24891;SDS011;12954;50.688;10.908;2023-01-04T04:12:26;7.47;;;4.80;;
24891;SDS011;12954;50.688;10.908;2023-01-04T04:14:54;6.18;;;5.00;;
24891;SDS011;12954;50.688;10.908;2023-01-04T04:17:23;4.50;;;3.90;;
24891;SDS011;12954;50.688;10.908;2023-01-04T04:19:51;8.43;;;4.15;;
24891;SDS011;12954;50.688;10.908;2023-01-04T04:22:19;7.18;;;3.72;;
24891;SDS011;12954;50.688;10.908;2023-01-04T04:24:48;6.82;;;4.10;;
24891;SDS011;12954;50.688;10.908;2023-01-04T04:27:17;4.80;;;3.40;;
24891;SDS011;12954;50.688;10.908;2023-01-04T04:29:46;4.95;;;3.65;;
24891;SDS011;12954;50.688;10.908;2023-01-04T04:32:14;4.15;;;3.70;;
24891;SDS011;12954;50.688;10.908;2023-01-04T04:34:43;4.43;;;3.60;;
24891;SDS011;12954;50.688;10.908;2023-01-04T04:37:11;5.28;;;4.10;;
24891;SDS011;12954;50.688;10.908;2023-01-04T04:39:39;10.27;;;6.20;;
24891;SDS011;12954;50.688;10.908;2023-01-04T04:42:08;4.88;;;4.15;;
24891;SDS011;12954;50.688;10.908;2023-01-04T04:44:36;6.93;;;4.70;;
24891;SDS011;12954;50.688;10.908;2023-01-04T04:47:05;5.53;;;4.78;;
24891;SDS011;12954;50.688;10.908;2023-01-04T04:49:33;6.85;;;4.85;;
24891;SDS011;12954;50.688;10.908;2023-01-04T04:52:02;5.30;;;4.60;;
24891;SDS011;12954;50.688;10.908;2023-01-04T04:54:30;5.72;;;4.75;;
24891;SDS011;12954;50.688;10.908;2023-01-04T04:56:58;7.88;;;4.90;;
24891;SDS011;12954;50.688;10.908;2023-01-04T04:59:27;5.00;;;3.88;;
24891;SDS011;12954;50.688;10.908;2023-01-04T05:01:57;6.20;;;4.78;;
24891;SDS011;12954;50.688;10.908;2023-01-04T05:04:25;5.88;;;3.85;;
24891;SDS011;12954;50.688;10.908;2023-01-04T05:06:54;4.55;;;3.80;;
24891;SDS011;12954;50.688;10.908;2023-01-04T05:09:22;5.50;;;3.95;;
24891;SDS011;12954;50.688;10.908;2023-01-04T05:11:51;5.75;;;4.18;;
24891;SDS011;12954;50.688;10.908;2023-01-04T05:14:36;4.45;;;3.65;;
24891;SDS011;12954;50.688;10.908;2023-01-04T05:17:06;5.72;;;3.90;;
24891;SDS011;12954;50.688;10.908;2023-01-04T05:19:36;4.55;;;3.88;;
24891;SDS011;12954;50.688;10.908;2023-01-04T05:22:04;4.70;;;4.03;;
24891;SDS011;12954;50.688;10.908;2023-01-04T05:24:33;5.50;;;3.78;;
24891;SDS011;12954;50.688;10.908;2023-01-04T05:27:01;4.63;;;3.85;;
24891;SDS011;12954;50.688;10.908;2023-01-04T05:29:29;4.43;;;2.97;;
24891;SDS011;12954;50.688;10.908;2023-01-04T05:32:16;4.85;;;3.75;;
24891;SDS011;12954;50.688;10.908;2023-01-04T05:34:44;4.95;;;3.70;;
24891;SDS011;12954;50.688;10.908;2023-01-04T05:37:13;6.35;;;3.88;;
24891;SDS011;12954;50.688;10.908;2023-01-04T05:39:41;5.60;;;3.55;;
24891;SDS011;12954;50.688;10.908;2023-01-04T05:42:09;4.32;;;3.63;;
24891;SDS011;12954;50.688;10.908;2023-01-04T05:47:24;5.70;;;3.67;;
24891;SDS011;12954;50.688;10.908;2023-01-04T05:49:53;5.43;;;3.95;;
24891;SDS011;12954;50.688;10.908;2023-01-04T05:52:21;6.65;;;4.50;;
24891;SDS011;12954;50.688;10.908;2023-01-04T05:54:49;5.55;;;4.20;;
24891;SDS011;12954;50.688;10.908;2023-01-04T05:57:18;5.93;;;4.40;;
24891;SDS011;12954;50.688;10.908;2023-01-04T05:59:46;5.00;;;3.80;;
24891;SDS011;12954;50.688;10.908;2023-01-04T06:02:16;4.82;;;4.32;;
24891;SDS011;12954;50.688;10.908;2023-01-04T06:04:48;4.93;;;4.40;;
24891;SDS011;12954;50.688;10.908;2023-01-04T06:07:24;5.60;;;5.07;;
24891;SDS011;12954;50.688;10.908;2023-01-04T06:09:52;5.13;;;4.28;;
24891;SDS011;12954;50.688;10.908;2023-01-04T06:12:21;4.97;;;4.00;;
24891;SDS011;12954;50.688;10.908;2023-01-04T06:14:49;7.18;;;3.92;;
24891;SDS011;12954;50.688;10.908;2023-01-04T06:17:18;4.63;;;4.10;;
24891;SDS011;12954;50.688;10.908;2023-01-04T06:19:48;4.82;;;3.75;;
24891;SDS011;12954;50.688;10.908;2023-01-04T06:22:16;4.13;;;3.65;;
24891;SDS011;12954;50.688;10.908;2023-01-04T06:24:45;4.75;;;3.50;;
24891;SDS011;12954;50.688;10.908;2023-01-04T06:27:14;4.03;;;3.63;;
24891;SDS011;12954;50.688;10.908;2023-01-04T06:29:42;4.10;;;3.53;;
24891;SDS011;12954;50.688;10.908;2023-01-04T06:32:10;3.85;;;3.00;;
24891;SDS011;12954;50.688;10.908;2023-01-04T06:34:39;4.28;;;3.70;;
24891;SDS011;12954;50.688;10.908;2023-01-04T06:37:08;3.40;;;2.70;;
24891;SDS011;12954;50.688;10.908;2023-01-04T06:39:37;4.45;;;2.72;;
24891;SDS011;12954;50.688;10.908;2023-01-04T06:42:06;3.72;;;3.33;;
24891;SDS011;12954;50.688;10.908;2023-01-04T06:44:56;4.25;;;2.60;;
24891;SDS011;12954;50.688;10.908;2023-01-04T06:47:24;5.18;;;2.80;;
24891;SDS011;12954;50.688;10.908;2023-01-04T06:49:52;3.90;;;3.08;;
24891;SDS011;12954;50.688;10.908;2023-01-04T06:52:22;3.95;;;2.60;;
24891;SDS011;12954;50.688;10.908;2023-01-04T06:54:51;5.20;;;2.92;;
24891;SDS011;12954;50.688;10.908;2023-01-04T06:57:19;3.30;;;3.00;;
24891;SDS011;12954;50.688;10.908;2023-01-04T06:59:47;4.57;;;3.22;;
24891;SDS011;12954;50.688;10.908;2023-01-04T07:02:16;3.92;;;3.55;;
24891;SDS011;12954;50.688;10.908;2023-01-04T07:04:44;6.07;;;2.85;;
24891;SDS011;12954;50.688;10.908;2023-01-04T07:07:13;5.60;;;3.70;;
24891;SDS011;12954;50.688;10.908;2023-01-04T07:09:42;4.20;;;2.40;;
24891;SDS011;12954;50.688;10.908;2023-01-04T07:12:11;4.60;;;2.70;;
24891;SDS011;12954;50.688;10.908;2023-01-04T07:14:40;3.65;;;2.90;;
24891;SDS011;12954;50.688;10.908;2023-01-04T07:17:08;2.90;;;2.58;;
24891;SDS011;12954;50.688;10.908;2023-01-04T07:19:36;3.45;;;2.70;;
24891;SDS011;12954;50.688;10.908;2023-01-04T07:22:05;3.83;;;3.15;;
24891;SDS011;12954;50.688;10.908;2023-01-04T07:24:33;3.72;;;2.80;;
24891;SDS011;12954;50.688;10.908;2023-01-04T07:27:03;3.17;;;2.83;;
24891;SDS011;12954;50.688;10.908;2023-01-04T07:29:32;3.22;;;2.63;;
24891;SDS011;12954;50.688;10.908;2023-01-04T07:32:00;2.97;;;2.08;;
24891;SDS011;12954;50.688;10.908;2023-01-04T07:34:34;3.65;;;2.70;;
24891;SDS011;12954;50.688;10.908;2023-01-04T07:37:04;3.92;;;2.40;;
24891;SDS011;12954;50.688;10.908;2023-01-04T07:39:34;3.22;;;2.65;;
24891;SDS011;12954;50.688;10.908;2023-01-04T07:42:04;2.85;;;2.55;;
24891;SDS011;12954;50.688;10.908;2023-01-04T07:44:32;4.25;;;2.40;;
24891;SDS011;12954;50.688;10.908;2023-01-04T07:47:01;3.25;;;2.40;;
24891;SDS011;12954;50.688;10.908;2023-01-04T07:49:29;2.95;;;2.65;;
24891;SDS011;12954;50.688;10.908;2023-01-04T07:51:58;3.13;;;2.35;;
24891;SDS011;12954;50.688;10.908;2023-01-04T07:54:26;2.58;;;2.17;;
24891;SDS011;12954;50.688;10.908;2023-01-04T07:56:54;3.10;;;2.80;;
24891;SDS011;12954;50.688;10.908;2023-01-04T07:59:24;3.97;;;2.63;;
24891;SDS011;12954;50.688;10.908;2023-01-04T08:01:53;3.47;;;2.42;;
24891;SDS011;12954;50.688;10.908;2023-01-04T08:04:21;3.03;;;2.67;;
24891;SDS011;12954;50.688;10.908;2023-01-04T08:06:59;2.83;;;2.25;;
24891;SDS011;12954;50.688;10.908;2023-01-04T08:09:28;2.22;;;1.92;;
24891;SDS011;12954;50.688;10.908;2023-01-04T08:11:56;3.28;;;2.00;;
24891;SDS011;12954;50.688;10.908;2023-01-04T08:14:26;2.83;;;2.13;;
24891;SDS011;12954;50.688;10.908;2023-01-04T08:16:54;2.55;;;1.77;;
24891;SDS011;12954;50.688;10.908;2023-01-04T08:19:23;2.30;;;2.00;;
24891;SDS011;12954;50.688;10.908;2023-01-04T08:21:51;2.20;;;2.00;;
24891;SDS011;12954;50.688;10.908;2023-01-04T08:24:19;2.88;;;1.90;;
24891;SDS011;12954;50.688;10.908;2023-01-04T08:26:48;2.10;;;1.90;;
24891;SDS011;12954;50.688;10.908;2023-01-04T08:29:16;2.13;;;1.88;;
24891;SDS011;12954;50.688;10.908;2023-01-04T08:31:46;3.35;;;2.70;;
24891;SDS011;12954;50.688;10.908;2023-01-04T08:34:14;2.42;;;2.10;;
24891;SDS011;12954;50.688;10.908;2023-01-04T08:36:44;2.13;;;1.73;;
24891;SDS011;12954;50.688;10.908;2023-01-04T08:39:15;2.88;;;1.98;;
24891;SDS011;12954;50.688;10.908;2023-01-04T08:41:43;3.47;;;2.20;;
24891;SDS011;12954;50.688;10.908;2023-01-04T08:44:30;2.60;;;1.88;;
24891;SDS011;12954;50.688;10.908;2023-01-04T08:47:01;2.67;;;2.13;;
24891;SDS011;12954;50.688;10.908;2023-01-04T08:49:30;2.67;;;1.65;;
24891;SDS011;12954;50.688;10.908;2023-01-04T08:51:58;2.22;;;2.03;;
24891;SDS011;12954;50.688;10.908;2023-01-04T08:54:27;2.00;;;1.80;;
24891;SDS011;12954;50.688;10.908;2023-01-04T08:56:55;2.00;;;1.80;;
24891;SDS011;12954;50.688;10.908;2023-01-04T08:59:23;2.33;;;1.92;;
24891;SDS011;12954;50.688;10.908;2023-01-04T09:01:52;2.60;;;2.25;;
24891;SDS011;12954;50.688;10.908;2023-01-04T09:04:31;2.10;;;1.90;;
24891;SDS011;12954;50.688;10.908;2023-01-04T09:07:00;3.38;;;2.30;;
24891;SDS011;12954;50.688;10.908;2023-01-04T09:09:28;3.17;;;2.45;;
24891;SDS011;12954;50.688;10.908;2023-01-04T09:11:56;2.00;;;1.80;;
24891;SDS011;12954;50.688;10.908;2023-01-04T09:14:25;2.85;;;2.15;;
24891;SDS011;12954;50.688;10.908;2023-01-04T09:16:53;2.03;;;1.83;;
24891;SDS011;12954;50.688;10.908;2023-01-04T09:19:22;2.72;;;2.30;;
24891;SDS011;12954;50.688;10.908;2023-01-04T09:21:52;2.75;;;2.20;;
24891;SDS011;12954;50.688;10.908;2023-01-04T09:24:20;3.25;;;2.30;;
24891;SDS011;12954;50.688;10.908;2023-01-04T09:26:49;2.95;;;2.33;;
24891;SDS011;12954;50.688;10.908;2023-01-04T09:29:17;2.78;;;2.25;;
24891;SDS011;12954;50.688;10.908;2023-01-04T09:31:46;3.55;;;2.17;;
24891;SDS011;12954;50.688;10.908;2023-01-04T09:34:14;2.80;;;2.50;;
24891;SDS011;12954;50.688;10.908;2023-01-04T09:36:43;4.30;;;2.88;;
24891;SDS011;12954;50.688;10.908;2023-01-04T09:39:14;3.08;;;2.78;;
24891;SDS011;12954;50.688;10.908;2023-01-04T09:41:51;4.45;;;3.72;;
24891;SDS011;12954;50.688;10.908;2023-01-04T09:44:25;3.90;;;3.50;;
24891;SDS011;12954;50.688;10.908;2023-01-04T09:47:21;5.55;;;3.70;;
24891;SDS011;12954;50.688;10.908;2023-01-04T09:49:58;3.53;;;3.15;;
24891;SDS011;12954;50.688;10.908;2023-01-04T09:52:37;3.90;;;3.50;;
24891;SDS011;12954;50.688;10.908;2023-01-04T09:55:15;3.60;;;3.30;;
24891;SDS011;12954;50.688;10.908;2023-01-04T10:00:49;3.47;;;2.80;;
24891;SDS011;12954;50.688;10.908;2023-01-04T10:03:22;5.13;;;2.83;;
24891;SDS011;12954;50.688;10.908;2023-01-04T10:05:54;3.08;;;2.60;;
24891;SDS011;12954;50.688;10.908;2023-01-04T10:08:23;4.70;;;3.08;;
24891;SDS011;12954;50.688;10.908;2023-01-04T10:10:57;3.15;;;2.58;;
24891;SDS011;12954;50.688;10.908;2023-01-04T10:13:44;3.28;;;2.90;;
24891;SDS011;12954;50.688;10.908;2023-01-04T10:16:23;4.13;;;2.20;;
24891;SDS011;12954;50.688;10.908;2023-01-04T10:19:33;3.55;;;2.47;;
24891;SDS011;12954;50.688;10.908;2023-01-04T10:22:31;3.50;;;2.80;;
24891;SDS011;12954;50.688;10.908;2023-01-04T10:25:17;3.25;;;2.75;;
24891;SDS011;12954;50.688;10.908;2023-01-04T10:27:55;2.35;;;1.95;;
24891;SDS011;12954;50.688;10.908;2023-01-04T10:30:36;2.15;;;1.85;;
24891;SDS011;12954;50.688;10.908;2023-01-04T10:33:10;2.60;;;1.80;;
24891;SDS011;12954;50.688;10.908;2023-01-04T10:35:40;1.95;;;1.55;;
24891;SDS011;12954;50.688;10.908;2023-01-04T10:38:13;2.40;;;1.50;;
24891;SDS011;12954;50.688;10.908;2023-01-04T10:40:45;1.77;;;1.38;;
24891;SDS011;12954;50.688;10.908;2023-01-04T10:43:26;1.73;;;1.60;;
24891;SDS011;12954;50.688;10.908;2023-01-04T10:46:24;2.65;;;1.58;;
24891;SDS011;12954;50.688;10.908;2023-01-04T10:48:57;1.67;;;1.30;;
24891;SDS011;12954;50.688;10.908;2023-01-04T10:54:02;3.75;;;1.30;;
24891;SDS011;12954;50.688;10.908;2023-01-04T10:56:39;1.85;;;1.38;;
24891;SDS011;12954;50.688;10.908;2023-01-04T10:59:17;1.70;;;1.30;;
24891;SDS011;12954;50.688;10.908;2023-01-04T11:01:49;3.70;;;1.48;;
24891;SDS011;12954;50.688;10.908;2023-01-04T11:04:24;2.60;;;1.40;;
24891;SDS011;12954;50.688;10.908;2023-01-04T11:06:56;4.72;;;1.75;;
24891;SDS011;12954;50.688;10.908;2023-01-04T11:09:32;1.60;;;1.40;;
24891;SDS011;12954;50.688;10.908;2023-01-04T11:12:05;2.72;;;1.30;;
24891;SDS011;12954;50.688;10.908;2023-01-04T11:14:38;4.45;;;1.40;;
24891;SDS011;12954;50.688;10.908;2023-01-04T11:17:07;2.20;;;1.45;;
24891;SDS011;12954;50.688;10.908;2023-01-04T11:19:38;1.75;;;1.45;;
24891;SDS011;12954;50.688;10.908;2023-01-04T11:22:10;1.42;;;1.30;;
24891;SDS011;12954;50.688;10.908;2023-01-04T11:24:44;2.00;;;1.38;;
24891;SDS011;12954;50.688;10.908;2023-01-04T11:27:40;1.20;;;1.10;;
24891;SDS011;12954;50.688;10.908;2023-01-04T11:30:15;2.30;;;1.38;;
24891;SDS011;12954;50.688;10.908;2023-01-04T11:32:48;1.60;;;1.50;;
24891;SDS011;12954;50.688;10.908;2023-01-04T11:35:35;1.55;;;1.27;;
24891;SDS011;12954;50.688;10.908;2023-01-04T11:38:12;1.95;;;1.55;;
24891;SDS011;12954;50.688;10.908;2023-01-04T11:43:21;3.17;;;1.73;;
24891;SDS011;12954;50.688;10.908;2023-01-04T11:45:56;1.55;;;1.40;;
24891;SDS011;12954;50.688;10.908;2023-01-04T11:48:30;2.10;;;1.60;;
24891;SDS011;12954;50.688;10.908;2023-01-04T11:51:01;3.80;;;2.05;;
24891;SDS011;12954;50.688;10.908;2023-01-04T11:53:30;3.35;;;1.67;;
24891;SDS011;12954;50.688;10.908;2023-01-04T11:56:07;1.85;;;1.45;;
24891;SDS011;12954;50.688;10.908;2023-01-04T11:58:41;2.53;;;1.20;;
24891;SDS011;12954;50.688;10.908;2023-01-04T12:01:22;1.42;;;1.20;;
24891;SDS011;12954;50.688;10.908;2023-01-04T12:03:51;1.88;;;1.00;;
24891;SDS011;12954;50.688;10.908;2023-01-04T12:06:21;1.25;;;1.00;;
24891;SDS011;12954;50.688;10.908;2023-01-04T12:08:57;1.63;;;1.02;;
24891;SDS011;12954;50.688;10.908;2023-01-04T12:11:27;1.25;;;0.80;;
24891;SDS011;12954;50.688;10.908;2023-01-04T12:13:58;1.58;;;1.10;;
24891;SDS011;12954;50.688;10.908;2023-01-04T12:16:32;1.50;;;0.88;;
24891;SDS011;12954;50.688;10.908;2023-01-04T12:19:12;1.85;;;0.90;;
24891;SDS011;12954;50.688;10.908;2023-01-04T12:21:43;1.52;;;0.90;;
24891;SDS011;12954;50.688;10.908;2023-01-04T12:24:16;1.63;;;1.10;;
24891;SDS011;12954;50.688;10.908;2023-01-04T12:26:46;1.40;;;1.15;;
24891;SDS011;12954;50.688;10.908;2023-01-04T12:29:33;0.88;;;0.75;;
24891;SDS011;12954;50.688;10.908;2023-01-04T12:47:45;0.40;;;0.40;;
24891;SDS011;12954;50.688;10.908;2023-01-04T12:50:31;0.98;;;0.50;;
24891;SDS011;12954;50.688;10.908;2023-01-04T12:54:21;0.50;;;0.50;;
24891;SDS011;12954;50.688;10.908;2023-01-04T13:00:03;0.70;;;0.65;;
24891;SDS011;12954;50.688;10.908;2023-01-04T13:02:33;1.30;;;0.50;;
24891;SDS011;12954;50.688;10.908;2023-01-04T13:08:22;0.40;;;0.40;;
24891;SDS011;12954;50.688;10.908;2023-01-04T13:10:53;0.50;;;0.40;;
24891;SDS011;12954;50.688;10.908;2023-01-04T13:13:25;2.08;;;1.33;;
24891;SDS011;12954;50.688;10.908;2023-01-04T13:16:02;2.30;;;0.90;;
24891;SDS011;12954;50.688;10.908;2023-01-04T13:18:44;0.80;;;0.68;;
24891;SDS011;12954;50.688;10.908;2023-01-04T13:21:16;2.15;;;0.90;;
24891;SDS011;12954;50.688;10.908;2023-01-04T13:23:51;1.25;;;0.93;;
24891;SDS011;12954;50.688;10.908;2023-01-04T13:26:31;3.00;;;1.70;;
24891;SDS011;12954;50.688;10.908;2023-01-04T13:29:04;3.08;;;2.00;;
24891;SDS011;12954;50.688;10.908;2023-01-04T13:31:37;1.70;;;1.13;;
24891;SDS011;12954;50.688;10.908;2023-01-04T13:34:17;1.30;;;1.02;;
24891;SDS011;12954;50.688;10.908;2023-01-04T13:39:22;1.50;;;0.90;;
24891;SDS011;12954;50.688;10.908;2023-01-04T13:41:52;2.55;;;0.90;;
24891;SDS011;12954;50.688;10.908;2023-01-04T13:44:24;1.05;;;0.85;;
24891;SDS011;12954;50.688;10.908;2023-01-04T13:47:29;1.17;;;0.70;;
24891;SDS011;12954;50.688;10.908;2023-01-04T13:50:05;1.15;;;0.65;;
24891;SDS011;12954;50.688;10.908;2023-01-04T13:52:46;1.10;;;0.60;;
24891;SDS011;12954;50.688;10.908;2023-01-04T13:55:32;0.77;;;0.77;;
24891;SDS011;12954;50.688;10.908;2023-01-04T13:58:04;2.15;;;0.77;;
24891;SDS011;12954;50.688;10.908;2023-01-04T14:00:35;0.80;;;0.60;;
24891;SDS011;12954;50.688;10.908;2023-01-04T14:03:12;0.40;;;0.40;;
24891;SDS011;12954;50.688;10.908;2023-01-04T14:05:49;1.55;;;0.80;;
24891;SDS011;12954;50.688;10.908;2023-01-04T14:08:30;0.68;;;0.68;;
24891;SDS011;12954;50.688;10.908;2023-01-04T14:11:01;1.50;;;0.52;;
24891;SDS011;12954;50.688;10.908;2023-01-04T14:13:45;2.17;;;0.50;;
24891;SDS011;12954;50.688;10.908;2023-01-04T14:16:14;1.63;;;0.85;;
24891;SDS011;12954;50.688;10.908;2023-01-04T14:18:44;0.43;;;0.30;;
24891;SDS011;12954;50.688;10.908;2023-01-04T14:21:14;1.80;;;0.60;;
24891;SDS011;12954;50.688;10.908;2023-01-04T14:23:43;0.80;;;0.60;;
24891;SDS011;12954;50.688;10.908;2023-01-04T14:29:20;0.75;;;0.65;;
24891;SDS011;12954;50.688;10.908;2023-01-04T14:31:49;1.48;;;0.40;;
24891;SDS011;12954;50.688;10.908;2023-01-04T14:34:18;0.68;;;0.40;;
24891;SDS011;12954;50.688;10.908;2023-01-04T14:36:46;0.50;;;0.40;;
24891;SDS011;12954;50.688;10.908;2023-01-04T14:42:01;0.70;;;0.40;;
24891;SDS011;12954;50.688;10.908;2023-01-04T14:44:32;0.90;;;0.65;;
24891;SDS011;12954;50.688;10.908;2023-01-04T14:47:01;0.40;;;0.40;;
24891;SDS011;12954;50.688;10.908;2023-01-04T14:49:33;1.80;;;1.33;;
24891;SDS011;12954;50.688;10.908;2023-01-04T14:52:02;0.40;;;0.40;;
24891;SDS011;12954;50.688;10.908;2023-01-04T14:54:36;1.23;;;0.60;;
24891;SDS011;12954;50.688;10.908;2023-01-04T14:57:05;1.20;;;0.40;;
24891;SDS011;12954;50.688;10.908;2023-01-04T14:59:35;0.70;;;0.50;;
24891;SDS011;12954;50.688;10.908;2023-01-04T15:02:03;0.40;;;0.40;;
24891;SDS011;12954;50.688;10.908;2023-01-04T15:04:31;0.57;;;0.50;;
24891;SDS011;12954;50.688;10.908;2023-01-04T15:07:00;1.77;;;0.50;;
24891;SDS011;12954;50.688;10.908;2023-01-04T15:09:28;0.45;;;0.40;;
24891;SDS011;12954;50.688;10.908;2023-01-04T15:11:57;0.50;;;0.50;;
24891;SDS011;12954;50.688;10.908;2023-01-04T15:14:25;1.40;;;0.82;;
24891;SDS011;12954;50.688;10.908;2023-01-04T15:16:55;0.93;;;0.70;;
24891;SDS011;12954;50.688;10.908;2023-01-04T15:19:23;3.70;;;1.58;;
24891;SDS011;12954;50.688;10.908;2023-01-04T15:21:55;0.70;;;0.60;;
24891;SDS011;12954;50.688;10.908;2023-01-04T15:24:23;0.90;;;0.90;;
24891;SDS011;12954;50.688;10.908;2023-01-04T15:26:52;2.35;;;1.38;;
24891;SDS011;12954;50.688;10.908;2023-01-04T15:29:20;1.45;;;1.10;;
24891;SDS011;12954;50.688;10.908;2023-01-04T15:31:49;1.13;;;0.90;;
24891;SDS011;12954;50.688;10.908;2023-01-04T15:34:19;0.95;;;0.88;;
24891;SDS011;12954;50.688;10.908;2023-01-04T15:36:49;0.50;;;0.50;;
24891;SDS011;12954;50.688;10.908;2023-01-04T15:39:17;0.70;;;0.70;;
24891;SDS011;12954;50.688;10.908;2023-01-04T15:41:46;0.90;;;0.65;;
24891;SDS011;12954;50.688;10.908;2023-01-04T15:44:31;3.08;;;2.00;;
24891;SDS011;12954;50.688;10.908;2023-01-04T15:46:59;0.63;;;0.63;;
24891;SDS011;12954;50.688;10.908;2023-01-04T15:49:29;0.30;;;0.30;;
24891;SDS011;12954;50.688;10.908;2023-01-04T15:51:58;1.10;;;0.50;;
24891;SDS011;12954;50.688;10.908;2023-01-04T15:54:27;0.80;;;0.50;;
24891;SDS011;12954;50.688;10.908;2023-01-04T15:56:55;1.98;;;0.75;;
24891;SDS011;12954;50.688;10.908;2023-01-04T15:59:24;2.78;;;1.17;;
24891;SDS011;12954;50.688;10.908;2023-01-04T16:01:52;0.47;;;0.45;;
24891;SDS011;12954;50.688;10.908;2023-01-04T16:04:21;1.13;;;0.40;;